sensor_id;sensor_type;location;lat;lon;timestamp;pressure;altitude;pressure_sealevel;temperature;humidity
26376;BME280;30544;42.196;24.336;2024-01-15T00:01:35;98753.97;;;-1.36;78.35
26376;BME280;30544;42.196;24.336;2024-01-15T00:04:04;98762.50;;;-1.39;78.65
26376;BME280;30544;42.196;24.336;2024-01-15T00:06:31;98749.09;;;-1.41;78.38
26376;BME280;30544;42.196;24.336;2024-01-15T00:09:00;98745.25;;;-1.46;78.33
26376;BME280;30544;42.196;24.336;2024-01-15T00:11:26;98742.72;;;-1.48;78.88
26376;BME280;30544;42.196;24.336;2024-01-15T00:13:53;98745.44;;;-1.48;78.33
26376;BME280;30544;42.196;24.336;2024-01-15T00:16:19;98740.84;;;-1.47;78.38
26376;BME280;30544;42.196;24.336;2024-01-15T00:18:46;98747.97;;;-1.46;78.59
26376;BME280;30544;42.196;24.336;2024-01-15T00:21:13;98740.66;;;-1.46;78.62
26376;BME280;30544;42.196;24.336;2024-01-15T00:23:42;98755.94;;;-1.45;78.70
26376;BME280;30544;42.196;24.336;2024-01-15T00:26:10;98773.47;;;-1.47;78.66
26376;BME280;30544;42.196;24.336;2024-01-15T00:28:36;98757.81;;;-1.45;79.03
26376;BME280;30544;42.196;24.336;2024-01-15T00:31:03;98755.28;;;-1.47;78.73
26376;BME280;30544;42.196;24.336;2024-01-15T00:33:30;98760.91;;;-1.48;78.76
26376;BME280;30544;42.196;24.336;2024-01-15T00:35:57;98751.06;;;-1.49;78.03
26376;BME280;30544;42.196;24.336;2024-01-15T00:38:23;98745.09;;;-1.53;78.07
26376;BME280;30544;42.196;24.336;2024-01-15T00:40:50;98748.50;;;-1.51;78.54
26376;BME280;30544;42.196;24.336;2024-01-15T00:43:18;98754.84;;;-1.59;78.62
26376;BME280;30544;42.196;24.336;2024-01-15T00:45:44;98747.16;;;-1.55;78.73
26376;BME280;30544;42.196;24.336;2024-01-15T00:48:11;98754.84;;;-1.59;78.45
26376;BME280;30544;42.196;24.336;2024-01-15T00:50:38;98749.88;;;-1.55;78.21
26376;BME280;30544;42.196;24.336;2024-01-15T00:53:04;98756.81;;;-1.67;78.32
26376;BME280;30544;42.196;24.336;2024-01-15T00:55:31;98746.03;;;-1.61;78.52
26376;BME280;30544;42.196;24.336;2024-01-15T00:57:58;98748.00;;;-1.55;78.63
26376;BME280;30544;42.196;24.336;2024-01-15T01:00:26;98750.06;;;-1.57;78.61
26376;BME280;30544;42.196;24.336;2024-01-15T01:02:52;98747.06;;;-1.62;78.35
26376;BME280;30544;42.196;24.336;2024-01-15T01:05:19;98746.41;;;-1.64;78.74
26376;BME280;30544;42.196;24.336;2024-01-15T01:07:45;98735.16;;;-1.61;78.77
26376;BME280;30544;42.196;24.336;2024-01-15T01:10:12;98730.56;;;-1.60;78.50
26376;BME280;30544;42.196;24.336;2024-01-15T01:12:38;98731.09;;;-1.65;78.05
26376;BME280;30544;42.196;24.336;2024-01-15T01:15:05;98726.88;;;-1.67;78.68
26376;BME280;30544;42.196;24.336;2024-01-15T01:17:33;98722.41;;;-1.60;78.86
26376;BME280;30544;42.196;24.336;2024-01-15T01:20:00;98728.88;;;-1.61;78.40
26376;BME280;30544;42.196;24.336;2024-01-15T01:22:29;98720.09;;;-1.71;79.06
26376;BME280;30544;42.196;24.336;2024-01-15T01:24:56;98728.56;;;-1.66;79.00
26376;BME280;30544;42.196;24.336;2024-01-15T01:27:22;98730.06;;;-1.64;78.66
26376;BME280;30544;42.196;24.336;2024-01-15T01:29:49;98732.44;;;-1.61;79.10
26376;BME280;30544;42.196;24.336;2024-01-15T01:32:16;98722.09;;;-1.65;78.89
26376;BME280;30544;42.196;24.336;2024-01-15T01:34:44;98711.22;;;-1.65;78.76
26376;BME280;30544;42.196;24.336;2024-01-15T01:37:11;98716.16;;;-1.69;78.31
26376;BME280;30544;42.196;24.336;2024-01-15T01:39:38;98715.69;;;-1.72;78.55
26376;BME280;30544;42.196;24.336;2024-01-15T01:42:05;98711.63;;;-1.76;78.28
26376;BME280;30544;42.196;24.336;2024-01-15T01:44:32;98709.28;;;-1.79;78.33
26376;BME280;30544;42.196;24.336;2024-01-15T01:46:58;98715.94;;;-1.82;78.71
26376;BME280;30544;42.196;24.336;2024-01-15T01:49:26;98715.94;;;-1.82;78.69
26376;BME280;30544;42.196;24.336;2024-01-15T01:51:54;98710.50;;;-1.82;78.77
26376;BME280;30544;42.196;24.336;2024-01-15T01:54:23;98716.97;;;-1.83;78.60
26376;BME280;30544;42.196;24.336;2024-01-15T01:56:50;98718.16;;;-1.86;78.04
26376;BME280;30544;42.196;24.336;2024-01-15T01:59:17;98717.66;;;-1.89;78.05
26376;BME280;30544;42.196;24.336;2024-01-15T02:01:44;98724.31;;;-1.92;78.64
26376;BME280;30544;42.196;24.336;2024-01-15T02:04:11;98716.63;;;-1.88;79.17
26376;BME280;30544;42.196;24.336;2024-01-15T02:06:41;98723.78;;;-1.87;78.39
26376;BME280;30544;42.196;24.336;2024-01-15T02:09:09;98719.53;;;-1.90;79.01
26376;BME280;30544;42.196;24.336;2024-01-15T02:11:35;98719.19;;;-1.87;78.93
26376;BME280;30544;42.196;24.336;2024-01-15T02:14:03;98705.47;;;-1.93;78.23
26376;BME280;30544;42.196;24.336;2024-01-15T02:16:29;98706.31;;;-1.93;78.88
26376;BME280;30544;42.196;24.336;2024-01-15T02:18:56;98705.47;;;-1.93;78.67
26376;BME280;30544;42.196;24.336;2024-01-15T02:21:22;98712.31;;;-1.97;78.09
26376;BME280;30544;42.196;24.336;2024-01-15T02:23:53;98709.78;;;-1.99;78.37
26376;BME280;30544;42.196;24.336;2024-01-15T02:26:19;98707.56;;;-2.03;78.58
26376;BME280;30544;42.196;24.336;2024-01-15T02:28:46;98708.97;;;-2.07;78.24
26376;BME280;30544;42.196;24.336;2024-01-15T02:31:13;98699.97;;;-2.08;78.72
26376;BME280;30544;42.196;24.336;2024-01-15T02:33:39;98699.59;;;-2.05;78.57
26376;BME280;30544;42.196;24.336;2024-01-15T02:36:07;98711.69;;;-2.07;78.59
26376;BME280;30544;42.196;24.336;2024-01-15T02:38:34;98706.53;;;-2.02;78.87
26376;BME280;30544;42.196;24.336;2024-01-15T02:41:02;98703.81;;;-2.02;78.16
26376;BME280;30544;42.196;24.336;2024-01-15T02:43:28;98710.28;;;-2.03;78.88
26376;BME280;30544;42.196;24.336;2024-01-15T02:45:55;98710.47;;;-2.05;78.64
26376;BME280;30544;42.196;24.336;2024-01-15T02:48:21;98708.31;;;-2.09;78.38
26376;BME280;30544;42.196;24.336;2024-01-15T02:50:48;98700.16;;;-2.09;78.65
26376;BME280;30544;42.196;24.336;2024-01-15T02:53:15;98689.28;;;-2.09;78.63
26376;BME280;30544;42.196;24.336;2024-01-15T02:55:41;98689.28;;;-2.09;78.05
26376;BME280;30544;42.196;24.336;2024-01-15T02:58:10;98691.16;;;-2.10;78.73
26376;BME280;30544;42.196;24.336;2024-01-15T03:00:37;98694.06;;;-2.12;77.84
26376;BME280;30544;42.196;24.336;2024-01-15T03:03:04;98687.09;;;-2.14;78.18
26376;BME280;30544;42.196;24.336;2024-01-15T03:05:30;98689.81;;;-2.14;78.06
26376;BME280;30544;42.196;24.336;2024-01-15T03:07:57;98697.13;;;-2.15;78.21
26376;BME280;30544;42.196;24.336;2024-01-15T03:10:24;98699.84;;;-2.15;77.83
26376;BME280;30544;42.196;24.336;2024-01-15T03:12:50;98693.75;;;-2.17;78.50
26376;BME280;30544;42.196;24.336;2024-01-15T03:15:18;98692.91;;;-2.17;78.45
26376;BME280;30544;42.196;24.336;2024-01-15T03:17:45;98701.22;;;-2.19;78.76
26376;BME280;30544;42.196;24.336;2024-01-15T03:20:11;98710.22;;;-2.18;78.82
26376;BME280;30544;42.196;24.336;2024-01-15T03:22:38;98696.47;;;-2.17;78.18
26376;BME280;30544;42.196;24.336;2024-01-15T03:25:05;98694.78;;;-2.18;78.61
26376;BME280;30544;42.196;24.336;2024-01-15T03:27:32;98701.91;;;-2.17;79.13
26376;BME280;30544;42.196;24.336;2024-01-15T03:29:59;98700.50;;;-2.13;79.23
26376;BME280;30544;42.196;24.336;2024-01-15T03:32:27;98688.25;;;-2.08;79.07
26376;BME280;30544;42.196;24.336;2024-01-15T03:34:53;98688.34;;;-2.02;79.46
26376;BME280;30544;42.196;24.336;2024-01-15T03:37:20;98705.53;;;-2.01;79.44
26376;BME280;30544;42.196;24.336;2024-01-15T03:39:47;98708.25;;;-2.01;79.61
26376;BME280;30544;42.196;24.336;2024-01-15T03:42:13;98701.94;;;-2.02;79.38
26376;BME280;30544;42.196;24.336;2024-01-15T03:44:40;98693.66;;;-2.00;78.98
26376;BME280;30544;42.196;24.336;2024-01-15T03:47:06;98679.69;;;-1.97;79.14
26376;BME280;30544;42.196;24.336;2024-01-15T03:49:35;98684.09;;;-1.96;78.56
26376;BME280;30544;42.196;24.336;2024-01-15T03:52:01;98677.81;;;-1.97;79.39
26376;BME280;30544;42.196;24.336;2024-01-15T03:54:28;98672.38;;;-1.97;78.71
26376;BME280;30544;42.196;24.336;2024-01-15T03:56:54;98670.88;;;-1.99;78.68
26376;BME280;30544;42.196;24.336;2024-01-15T03:59:21;98660.34;;;-2.02;78.84
26376;BME280;30544;42.196;24.336;2024-01-15T04:01:48;98641.50;;;-2.04;78.64
26376;BME280;30544;42.196;24.336;2024-01-15T04:04:15;98636.56;;;-2.00;78.56
26376;BME280;30544;42.196;24.336;2024-01-15T04:06:43;98639.31;;;-2.08;78.88
26376;BME280;30544;42.196;24.336;2024-01-15T04:09:11;98653.56;;;-2.06;79.65
26376;BME280;30544;42.196;24.336;2024-01-15T04:11:38;98631.97;;;-2.00;79.54
26376;BME280;30544;42.196;24.336;2024-01-15T04:14:04;98627.00;;;-1.96;79.40
26376;BME280;30544;42.196;24.336;2024-01-15T04:16:31;98621.38;;;-1.95;78.85
26376;BME280;30544;42.196;24.336;2024-01-15T04:18:58;98649.84;;;-2.05;78.57
26376;BME280;30544;42.196;24.336;2024-01-15T04:21:24;98660.69;;;-2.05;79.51
26376;BME280;30544;42.196;24.336;2024-01-15T04:23:52;98662.53;;;-1.98;79.37
26376;BME280;30544;42.196;24.336;2024-01-15T04:26:19;98664.59;;;-2.00;78.83
26376;BME280;30544;42.196;24.336;2024-01-15T04:28:45;98646.09;;;-2.04;78.68
26376;BME280;30544;42.196;24.336;2024-01-15T04:31:20;98653.22;;;-2.03;79.17
26376;BME280;30544;42.196;24.336;2024-01-15T04:33:46;98645.25;;;-2.05;78.20
26376;BME280;30544;42.196;24.336;2024-01-15T04:36:13;98639.63;;;-2.03;78.28
26376;BME280;30544;42.196;24.336;2024-01-15T04:38:40;98642.69;;;-2.06;78.61
26376;BME280;30544;42.196;24.336;2024-01-15T04:41:10;98626.09;;;-2.12;78.14
26376;BME280;30544;42.196;24.336;2024-01-15T04:43:37;98640.06;;;-2.15;77.95
26376;BME280;30544;42.196;24.336;2024-01-15T04:46:05;98634.63;;;-2.15;78.12
26376;BME280;30544;42.196;24.336;2024-01-15T04:48:31;98642.97;;;-2.16;78.45
26376;BME280;30544;42.196;24.336;2024-01-15T04:50:58;98644.66;;;-2.15;77.82
26376;BME280;30544;42.196;24.336;2024-01-15T04:53:24;98640.44;;;-2.18;77.56
26376;BME280;30544;42.196;24.336;2024-01-15T04:55:51;98634.81;;;-2.16;77.86
26376;BME280;30544;42.196;24.336;2024-01-15T04:58:19;98633.28;;;-2.19;77.49
26376;BME280;30544;42.196;24.336;2024-01-15T05:00:46;98632.09;;;-2.16;77.43
26376;BME280;30544;42.196;24.336;2024-01-15T05:03:12;98632.09;;;-2.16;77.47
26376;BME280;30544;42.196;24.336;2024-01-15T05:05:39;98620.72;;;-2.20;77.68
26376;BME280;30544;42.196;24.336;2024-01-15T05:08:05;98616.13;;;-2.19;77.60
26376;BME280;30544;42.196;24.336;2024-01-15T05:10:32;98629.56;;;-2.18;77.63
26376;BME280;30544;42.196;24.336;2024-01-15T05:12:59;98621.56;;;-2.19;77.53
26376;BME280;30544;42.196;24.336;2024-01-15T05:15:27;98629.22;;;-2.23;76.74
26376;BME280;30544;42.196;24.336;2024-01-15T05:17:54;98639.44;;;-2.25;76.93
26376;BME280;30544;42.196;24.336;2024-01-15T05:20:21;98640.28;;;-2.24;77.04
26376;BME280;30544;42.196;24.336;2024-01-15T05:22:48;98643.84;;;-2.24;77.15
26376;BME280;30544;42.196;24.336;2024-01-15T05:25:14;98647.22;;;-2.22;77.39
26376;BME280;30544;42.196;24.336;2024-01-15T05:27:41;98637.38;;;-2.23;77.06
26376;BME280;30544;42.196;24.336;2024-01-15T05:30:08;98641.31;;;-2.25;77.47
26376;BME280;30544;42.196;24.336;2024-01-15T05:32:36;98631.66;;;-2.28;76.93
26376;BME280;30544;42.196;24.336;2024-01-15T05:35:03;98622.19;;;-2.32;76.59
26376;BME280;30544;42.196;24.336;2024-01-15T05:37:29;98625.09;;;-2.33;76.61
26376;BME280;30544;42.196;24.336;2024-01-15T05:39:56;98617.25;;;-2.36;76.57
26376;BME280;30544;42.196;24.336;2024-01-15T05:42:23;98624.56;;;-2.37;76.93
26376;BME280;30544;42.196;24.336;2024-01-15T05:44:49;98632.06;;;-2.39;77.08
26376;BME280;30544;42.196;24.336;2024-01-15T05:47:16;98622.56;;;-2.35;77.21
26376;BME280;30544;42.196;24.336;2024-01-15T05:49:44;98613.38;;;-2.34;76.87
26376;BME280;30544;42.196;24.336;2024-01-15T05:52:10;98592.28;;;-2.32;77.60
26376;BME280;30544;42.196;24.336;2024-01-15T05:54:37;98603.53;;;-2.35;77.64
26376;BME280;30544;42.196;24.336;2024-01-15T05:57:04;98618.13;;;-2.36;77.23
26376;BME280;30544;42.196;24.336;2024-01-15T05:59:30;98637.81;;;-2.34;77.27
26376;BME280;30544;42.196;24.336;2024-01-15T06:01:59;98632.53;;;-2.35;76.98
26376;BME280;30544;42.196;24.336;2024-01-15T06:04:25;98636.13;;;-2.35;77.24
26376;BME280;30544;42.196;24.336;2024-01-15T06:06:53;98641.56;;;-2.35;76.83
26376;BME280;30544;42.196;24.336;2024-01-15T06:09:20;98646.31;;;-2.37;77.04
26376;BME280;30544;42.196;24.336;2024-01-15T06:11:47;98649.34;;;-2.32;77.78
26376;BME280;30544;42.196;24.336;2024-01-15T06:14:13;98636.44;;;-2.30;77.30
26376;BME280;30544;42.196;24.336;2024-01-15T06:16:40;98646.56;;;-2.24;77.22
26376;BME280;30544;42.196;24.336;2024-01-15T06:19:06;98639.81;;;-2.28;77.68
26376;BME280;30544;42.196;24.336;2024-01-15T06:21:33;98642.44;;;-2.20;77.64
26376;BME280;30544;42.196;24.336;2024-01-15T06:24:01;98639.03;;;-2.14;77.52
26376;BME280;30544;42.196;24.336;2024-01-15T06:26:27;98635.47;;;-2.14;78.17
26376;BME280;30544;42.196;24.336;2024-01-15T06:28:54;98633.88;;;-2.08;78.18
26376;BME280;30544;42.196;24.336;2024-01-15T06:31:21;98619.09;;;-2.06;77.53
26376;BME280;30544;42.196;24.336;2024-01-15T06:33:48;98630.44;;;-2.02;78.15
26376;BME280;30544;42.196;24.336;2024-01-15T06:36:14;98629.06;;;-1.98;77.60
26376;BME280;30544;42.196;24.336;2024-01-15T06:38:43;98632.06;;;-1.93;78.53
26376;BME280;30544;42.196;24.336;2024-01-15T06:41:11;98618.41;;;-1.85;77.96
26376;BME280;30544;42.196;24.336;2024-01-15T06:43:38;98610.75;;;-1.82;78.20
26376;BME280;30544;42.196;24.336;2024-01-15T06:46:04;98610.84;;;-1.75;78.24
26376;BME280;30544;42.196;24.336;2024-01-15T06:48:31;98612.81;;;-1.69;78.13
26376;BME280;30544;42.196;24.336;2024-01-15T06:50:57;98603.75;;;-1.61;77.78
26376;BME280;30544;42.196;24.336;2024-01-15T06:53:24;98610.97;;;-1.54;77.94
26376;BME280;30544;42.196;24.336;2024-01-15T06:55:51;98614.47;;;-1.45;77.90
26376;BME280;30544;42.196;24.336;2024-01-15T06:58:19;98607.06;;;-1.36;78.39
26376;BME280;30544;42.196;24.336;2024-01-15T07:00:46;98614.09;;;-1.27;78.03
26376;BME280;30544;42.196;24.336;2024-01-15T07:03:12;98614.00;;;-1.19;77.71
26376;BME280;30544;42.196;24.336;2024-01-15T07:05:39;98609.50;;;-1.12;77.94
26376;BME280;30544;42.196;24.336;2024-01-15T07:08:05;98608.38;;;-1.03;77.95
26376;BME280;30544;42.196;24.336;2024-01-15T07:10:32;98611.19;;;-0.96;77.34
26376;BME280;30544;42.196;24.336;2024-01-15T07:12:59;98609.59;;;-0.91;77.52
26376;BME280;30544;42.196;24.336;2024-01-15T07:15:27;98609.13;;;-0.79;77.54
26376;BME280;30544;42.196;24.336;2024-01-15T07:17:53;98616.13;;;-0.70;77.23
26376;BME280;30544;42.196;24.336;2024-01-15T07:20:20;98606.19;;;-0.63;77.16
26376;BME280;30544;42.196;24.336;2024-01-15T07:22:46;98604.16;;;-0.54;76.62
26376;BME280;30544;42.196;24.336;2024-01-15T07:25:13;98609.72;;;-0.48;76.63
26376;BME280;30544;42.196;24.336;2024-01-15T07:27:40;98613.34;;;-0.41;76.28
26376;BME280;30544;42.196;24.336;2024-01-15T07:30:09;98619.53;;;-0.32;76.12
26376;BME280;30544;42.196;24.336;2024-01-15T07:32:38;98621.72;;;-0.21;75.95
26376;BME280;30544;42.196;24.336;2024-01-15T07:35:04;98627.72;;;-0.11;75.73
26376;BME280;30544;42.196;24.336;2024-01-15T07:37:31;98633.44;;;-0.06;75.65
26376;BME280;30544;42.196;24.336;2024-01-15T07:39:58;98630.41;;;0.04;75.47
26376;BME280;30544;42.196;24.336;2024-01-15T07:42:25;98635.31;;;0.15;75.08
26376;BME280;30544;42.196;24.336;2024-01-15T07:44:52;98644.47;;;0.29;74.58
26376;BME280;30544;42.196;24.336;2024-01-15T07:47:18;98653.63;;;0.43;74.32
26376;BME280;30544;42.196;24.336;2024-01-15T07:49:46;98646.59;;;0.55;73.89
26376;BME280;30544;42.196;24.336;2024-01-15T07:52:13;98649.59;;;0.67;73.64
26376;BME280;30544;42.196;24.336;2024-01-15T07:54:39;98650.81;;;0.85;73.14
26376;BME280;30544;42.196;24.336;2024-01-15T07:57:06;98647.56;;;1.03;72.83
26376;BME280;30544;42.196;24.336;2024-01-15T07:59:32;98652.88;;;1.11;72.51
26376;BME280;30544;42.196;24.336;2024-01-15T08:02:01;98643.84;;;1.17;72.34
26376;BME280;30544;42.196;24.336;2024-01-15T08:04:27;98643.72;;;1.32;71.24
26376;BME280;30544;42.196;24.336;2024-01-15T08:06:55;98646.75;;;1.50;71.46
26376;BME280;30544;42.196;24.336;2024-01-15T08:09:23;98648.50;;;1.65;70.97
26376;BME280;30544;42.196;24.336;2024-01-15T08:11:49;98653.59;;;1.81;70.90
26376;BME280;30544;42.196;24.336;2024-01-15T08:14:17;98653.19;;;1.84;69.85
26376;BME280;30544;42.196;24.336;2024-01-15T08:16:44;98647.16;;;2.02;70.24
26376;BME280;30544;42.196;24.336;2024-01-15T08:19:11;98639.59;;;2.10;69.62
26376;BME280;30544;42.196;24.336;2024-01-15T08:21:37;98636.44;;;2.14;68.63
26376;BME280;30544;42.196;24.336;2024-01-15T08:24:06;98644.25;;;2.30;68.79
26376;BME280;30544;42.196;24.336;2024-01-15T08:26:32;98645.97;;;2.44;67.90
26376;BME280;30544;42.196;24.336;2024-01-15T08:28:59;98642.59;;;2.62;67.90
26376;BME280;30544;42.196;24.336;2024-01-15T08:31:26;98632.06;;;2.72;67.41
26376;BME280;30544;42.196;24.336;2024-01-15T08:33:52;98623.22;;;2.77;66.27
26376;BME280;30544;42.196;24.336;2024-01-15T08:36:20;98604.66;;;2.85;67.08
26376;BME280;30544;42.196;24.336;2024-01-15T08:38:47;98600.22;;;2.91;66.21
26376;BME280;30544;42.196;24.336;2024-01-15T08:41:15;98611.16;;;3.04;65.57
26376;BME280;30544;42.196;24.336;2024-01-15T08:43:42;98619.13;;;3.19;64.53
26376;BME280;30544;42.196;24.336;2024-01-15T08:46:08;98604.53;;;3.31;65.26
26376;BME280;30544;42.196;24.336;2024-01-15T08:48:35;98604.94;;;3.42;63.28
26376;BME280;30544;42.196;24.336;2024-01-15T08:51:02;98624.72;;;3.57;63.74
26376;BME280;30544;42.196;24.336;2024-01-15T08:53:28;98622.94;;;3.69;63.12
26376;BME280;30544;42.196;24.336;2024-01-15T08:55:55;98605.19;;;3.78;62.36
26376;BME280;30544;42.196;24.336;2024-01-15T08:58:24;98607.25;;;3.89;62.68
26376;BME280;30544;42.196;24.336;2024-01-15T09:00:51;98619.03;;;3.97;62.05
26376;BME280;30544;42.196;24.336;2024-01-15T09:03:17;98614.34;;;4.04;62.06
26376;BME280;30544;42.196;24.336;2024-01-15T09:05:44;98611.78;;;4.09;62.23
26376;BME280;30544;42.196;24.336;2024-01-15T09:08:11;98606.28;;;4.09;62.22
26376;BME280;30544;42.196;24.336;2024-01-15T09:10:38;98614.69;;;4.14;62.23
26376;BME280;30544;42.196;24.336;2024-01-15T09:13:04;98612.56;;;4.16;61.81
26376;BME280;30544;42.196;24.336;2024-01-15T09:15:32;98609.38;;;4.19;62.63
26376;BME280;30544;42.196;24.336;2024-01-15T09:17:59;98594.38;;;4.21;62.71
26376;BME280;30544;42.196;24.336;2024-01-15T09:20:27;98606.47;;;4.14;62.45
26376;BME280;30544;42.196;24.336;2024-01-15T09:22:54;98605.75;;;4.25;62.50
26376;BME280;30544;42.196;24.336;2024-01-15T09:25:20;98593.44;;;4.34;62.64
26376;BME280;30544;42.196;24.336;2024-01-15T09:27:47;98586.38;;;4.45;62.77
26376;BME280;30544;42.196;24.336;2024-01-15T09:30:14;98594.78;;;4.50;63.02
26376;BME280;30544;42.196;24.336;2024-01-15T09:32:42;98582.50;;;4.52;63.08
26376;BME280;30544;42.196;24.336;2024-01-15T09:35:09;98574.44;;;4.58;62.70
26376;BME280;30544;42.196;24.336;2024-01-15T09:37:35;98552.78;;;4.68;62.73
26376;BME280;30544;42.196;24.336;2024-01-15T09:40:03;98548.53;;;4.72;62.23
26376;BME280;30544;42.196;24.336;2024-01-15T09:42:30;98544.88;;;4.78;61.37
26376;BME280;30544;42.196;24.336;2024-01-15T09:44:56;98533.19;;;4.82;61.69
26376;BME280;30544;42.196;24.336;2024-01-15T09:47:23;98529.47;;;4.95;61.53
26376;BME280;30544;42.196;24.336;2024-01-15T09:49:52;98518.25;;;4.97;60.04
26376;BME280;30544;42.196;24.336;2024-01-15T09:52:18;98506.41;;;4.96;59.33
26376;BME280;30544;42.196;24.336;2024-01-15T09:54:45;98490.00;;;5.08;58.59
26376;BME280;30544;42.196;24.336;2024-01-15T09:57:12;98463.41;;;5.20;58.42
26376;BME280;30544;42.196;24.336;2024-01-15T09:59:39;98458.91;;;5.26;58.14
26376;BME280;30544;42.196;24.336;2024-01-15T10:02:09;98458.22;;;5.30;57.31
26376;BME280;30544;42.196;24.336;2024-01-15T10:04:38;98467.75;;;5.28;56.94
26376;BME280;30544;42.196;24.336;2024-01-15T10:07:06;98469.75;;;5.39;57.68
26376;BME280;30544;42.196;24.336;2024-01-15T10:09:35;98481.00;;;5.49;56.43
26376;BME280;30544;42.196;24.336;2024-01-15T10:12:03;98485.81;;;5.54;55.96
26376;BME280;30544;42.196;24.336;2024-01-15T10:14:30;98459.06;;;5.61;55.42
26376;BME280;30544;42.196;24.336;2024-01-15T10:16:57;98444.50;;;5.72;55.16
26376;BME280;30544;42.196;24.336;2024-01-15T10:19:24;98442.25;;;5.81;55.08
26376;BME280;30544;42.196;24.336;2024-01-15T10:21:51;98430.28;;;5.87;54.36
26376;BME280;30544;42.196;24.336;2024-01-15T10:24:19;98423.41;;;5.96;54.28
26376;BME280;30544;42.196;24.336;2024-01-15T10:26:45;98417.66;;;6.09;54.13
26376;BME280;30544;42.196;24.336;2024-01-15T10:29:14;98420.91;;;6.06;53.63
26376;BME280;30544;42.196;24.336;2024-01-15T10:31:41;98402.34;;;6.13;52.96
26376;BME280;30544;42.196;24.336;2024-01-15T10:34:11;98405.22;;;6.18;53.25
26376;BME280;30544;42.196;24.336;2024-01-15T10:36:40;98399.38;;;6.26;52.80
26376;BME280;30544;42.196;24.336;2024-01-15T10:39:07;98400.06;;;6.45;52.25
26376;BME280;30544;42.196;24.336;2024-01-15T10:41:35;98398.97;;;6.58;52.03
26376;BME280;30544;42.196;24.336;2024-01-15T10:44:02;98406.50;;;6.74;51.69
26376;BME280;30544;42.196;24.336;2024-01-15T10:46:29;98402.03;;;6.85;51.49
26376;BME280;30544;42.196;24.336;2024-01-15T10:48:56;98391.50;;;6.82;51.00
26376;BME280;30544;42.196;24.336;2024-01-15T10:51:23;98384.41;;;6.86;51.04
26376;BME280;30544;42.196;24.336;2024-01-15T10:53:51;98384.47;;;6.74;50.81
26376;BME280;30544;42.196;24.336;2024-01-15T10:56:19;98371.69;;;6.45;50.34
26376;BME280;30544;42.196;24.336;2024-01-15T10:58:48;98375.75;;;6.30;50.41
26376;BME280;30544;42.196;24.336;2024-01-15T11:01:16;98364.59;;;6.37;50.70
26376;BME280;30544;42.196;24.336;2024-01-15T11:03:44;98366.53;;;6.48;50.96
26376;BME280;30544;42.196;24.336;2024-01-15T11:06:18;98364.34;;;6.50;51.28
26376;BME280;30544;42.196;24.336;2024-01-15T11:08:46;98365.19;;;6.51;51.77
26376;BME280;30544;42.196;24.336;2024-01-15T11:11:15;98355.06;;;6.40;52.07
26376;BME280;30544;42.196;24.336;2024-01-15T11:13:41;98351.91;;;6.59;52.36
26376;BME280;30544;42.196;24.336;2024-01-15T11:16:11;98353.56;;;6.72;52.35
26376;BME280;30544;42.196;24.336;2024-01-15T11:18:39;98344.16;;;6.85;51.74
26376;BME280;30544;42.196;24.336;2024-01-15T11:21:22;98339.69;;;6.96;51.42
26376;BME280;30544;42.196;24.336;2024-01-15T11:23:49;98342.25;;;7.14;50.97
26376;BME280;30544;42.196;24.336;2024-01-15T11:26:32;98332.09;;;7.31;50.59
26376;BME280;30544;42.196;24.336;2024-01-15T11:28:59;98332.94;;;7.48;50.05
26376;BME280;30544;42.196;24.336;2024-01-15T11:31:28;98325.31;;;7.55;49.46
26376;BME280;30544;42.196;24.336;2024-01-15T11:33:55;98315.06;;;7.68;50.03
26376;BME280;30544;42.196;24.336;2024-01-15T11:36:33;98322.81;;;7.71;49.13
26376;BME280;30544;42.196;24.336;2024-01-15T11:42:11;98338.72;;;7.64;48.52
26376;BME280;30544;42.196;24.336;2024-01-15T11:44:39;98339.13;;;7.55;48.91
26376;BME280;30544;42.196;24.336;2024-01-15T11:47:07;98329.28;;;7.60;48.99
26376;BME280;30544;42.196;24.336;2024-01-15T11:49:42;98337.13;;;7.68;48.82
26376;BME280;30544;42.196;24.336;2024-01-15T11:52:16;98326.78;;;7.58;48.88
26376;BME280;30544;42.196;24.336;2024-01-15T11:54:44;98323.84;;;7.48;48.52
26376;BME280;30544;42.196;24.336;2024-01-15T11:57:18;98315.88;;;7.51;49.28
26376;BME280;30544;42.196;24.336;2024-01-15T11:59:45;98306.53;;;7.69;49.12
26376;BME280;30544;42.196;24.336;2024-01-15T12:02:14;98306.13;;;7.77;48.95
26376;BME280;30544;42.196;24.336;2024-01-15T12:04:40;98295.91;;;7.78;48.76
26376;BME280;30544;42.196;24.336;2024-01-15T12:07:07;98297.06;;;7.82;48.42
26376;BME280;30544;42.196;24.336;2024-01-15T12:09:34;98285.53;;;7.85;48.65
26376;BME280;30544;42.196;24.336;2024-01-15T12:12:02;98295.97;;;7.83;47.92
26376;BME280;30544;42.196;24.336;2024-01-15T12:14:31;98292.13;;;7.84;47.97
26376;BME280;30544;42.196;24.336;2024-01-15T12:16:59;98305.94;;;7.84;47.68
26376;BME280;30544;42.196;24.336;2024-01-15T12:19:27;98302.59;;;7.82;48.17
26376;BME280;30544;42.196;24.336;2024-01-15T12:21:54;98308.44;;;7.69;48.83
26376;BME280;30544;42.196;24.336;2024-01-15T12:24:21;98299.50;;;7.62;48.89
26376;BME280;30544;42.196;24.336;2024-01-15T12:26:48;98299.00;;;7.65;49.00
26376;BME280;30544;42.196;24.336;2024-01-15T12:29:17;98281.78;;;7.41;48.98
26376;BME280;30544;42.196;24.336;2024-01-15T12:31:46;98289.81;;;7.42;48.81
26376;BME280;30544;42.196;24.336;2024-01-15T12:34:12;98281.53;;;7.59;49.02
26376;BME280;30544;42.196;24.336;2024-01-15T12:36:41;98284.44;;;7.52;48.88
26376;BME280;30544;42.196;24.336;2024-01-15T12:39:11;98288.47;;;7.62;49.27
26376;BME280;30544;42.196;24.336;2024-01-15T12:41:38;98297.50;;;7.57;49.59
26376;BME280;30544;42.196;24.336;2024-01-15T12:44:05;98292.47;;;7.71;49.01
26376;BME280;30544;42.196;24.336;2024-01-15T12:46:32;98293.56;;;7.70;49.31
26376;BME280;30544;42.196;24.336;2024-01-15T12:48:58;98287.31;;;7.74;48.93
26376;BME280;30544;42.196;24.336;2024-01-15T12:51:25;98285.63;;;7.90;49.46
26376;BME280;30544;42.196;24.336;2024-01-15T12:53:54;98276.56;;;7.95;49.32
26376;BME280;30544;42.196;24.336;2024-01-15T12:56:21;98261.00;;;7.89;48.64
26376;BME280;30544;42.196;24.336;2024-01-15T12:58:47;98259.75;;;7.96;48.75